Impacts TAF Board
For situational awareness. Not to be used for flight planning purposes.
IDs:

KTPA - Tampa Intl Arpt, FL, US

Issued at 2337 UTC 11 Dec 2018
Updated at 0231 UTC 12 Dec 2018
Potential Impact None Slight Moderate High
Time<<13/03Z 13/04Z 13/05Z 13/06Z 13/07Z 13/08Z 13/09Z 13/10Z 13/11Z 13/12Z 13/13Z 13/14Z 13/15Z
Type PRVL PRVL PRVL
VIS >6 >6 >6
CIG -- -- --
Cover FEW FEW FEW
FltCat VFR VFR VFR
WX -- -- --
WDir 240 240 240
WSpd 6 6 6
WGst -- -- --
Raw TAF
KTPA 112337Z 1200/1306 35005KT P6SM FEW250
  FM120300 03003KT P6SM SKC
  FM121400 09006KT P6SM SKC
  FM122000 24006KT P6SM FEW250


METAR Board
Radar Display
Forecast Discussion
For situational awareness. Not to be used for flight planning purposes.